Time;durP1;ratioP1;P1;durP2;ratioP2;P2;SDS_P1;SDS_P2;PMS_P1;PMS_P2;Temp;Humidity;BMP_temperature;BMP_pressure;BME280_temperature;BME280_humidity;BME280_pressure;Samples;Min_cycle;Max_cycle;Signal;HPM_P1;HPM_P2
2023/07/09 00:00:49;;;;;;;7.43;5.38;;;;;;;;;;5039955;28;20430;-75
2023/07/09 00:03:15;;;;;;;9.18;5.32;;;;;;;;;;5048015;28;20104;-74
2023/07/09 00:05:41;;;;;;;8.45;5.15;;;;;;;;;;5048951;28;20040;-74
2023/07/09 00:08:26;;;;;;;9.98;6.25;;;;;;;;;;5029138;28;20112;-74
2023/07/09 00:10:52;;;;;;;8.80;5.65;;;;;;;;;;5049519;28;20639;-75
2023/07/09 00:13:17;;;;;;;8.55;5.45;;;;;;;;;;5020492;28;20754;-74
2023/07/09 00:15:43;;;;;;;8.25;5.47;;;;;;;;;;5025205;28;20057;-74
2023/07/09 00:18:09;;;;;;;8.57;4.97;;;;;;;;;;5027547;28;20112;-74
2023/07/09 00:20:35;;;;;;;9.80;5.75;;;;;;;;;;5047149;28;20028;-77
2023/07/09 00:23:04;;;;;;;8.35;5.13;;;;;;;;;;5041576;28;20105;-74
2023/07/09 00:25:30;;;;;;;8.82;5.80;;;;;;;;;;5044533;28;20460;-75
2023/07/09 00:27:56;;;;;;;8.90;5.50;;;;;;;;;;5026989;28;20078;-74
2023/07/09 00:30:23;;;;;;;10.25;5.63;;;;;;;;;;5032360;28;20028;-74
2023/07/09 00:32:49;;;;;;;8.32;5.53;;;;;;;;;;5043526;28;20473;-74
2023/07/09 00:35:15;;;;;;;9.35;5.97;;;;;;;;;;5043245;28;20075;-76
2023/07/09 00:37:44;;;;;;;8.90;5.43;;;;;;;;;;5041243;28;20025;-77
2023/07/09 00:40:16;;;;;;;7.95;5.40;;;;;;;;;;5023509;28;20025;-74
2023/07/09 00:42:45;;;;;;;8.15;5.32;;;;;;;;;;5046594;28;20043;-75
2023/07/09 00:45:27;;;;;;;8.95;6.05;;;;;;;;;;5038204;28;20028;-74
2023/07/09 00:47:58;;;;;;;9.60;5.87;;;;;;;;;;5043399;28;20104;-74
2023/07/09 00:50:33;;;;;;;8.02;5.32;;;;;;;;;;5046901;28;20639;-75
2023/07/09 00:53:07;;;;;;;10.07;5.47;;;;;;;;;;5046131;28;20029;-74
2023/07/09 00:55:37;;;;;;;8.63;5.22;;;;;;;;;;5048043;28;20373;-75
2023/07/09 00:58:07;;;;;;;7.43;5.50;;;;;;;;;;5026266;28;20034;-74
2023/07/09 01:00:46;;;;;;;8.15;5.60;;;;;;;;;;5031567;28;20036;-74
2023/07/09 01:03:25;;;;;;;8.45;5.60;;;;;;;;;;5047350;28;20116;-74
2023/07/09 01:05:51;;;;;;;8.25;5.80;;;;;;;;;;5047026;28;20020;-75
2023/07/09 01:08:19;;;;;;;12.88;6.68;;;;;;;;;;5029795;28;20033;-74
2023/07/09 01:10:44;;;;;;;9.82;6.38;;;;;;;;;;5027770;28;20388;-75
2023/07/09 01:13:10;;;;;;;10.77;6.35;;;;;;;;;;5046645;28;20033;-75
2023/07/09 01:15:37;;;;;;;12.85;6.30;;;;;;;;;;5047289;28;20393;-74
2023/07/09 01:18:04;;;;;;;9.55;6.55;;;;;;;;;;5034529;28;20031;-74
2023/07/09 01:20:30;;;;;;;9.25;6.72;;;;;;;;;;5052703;28;20031;-74
2023/07/09 01:22:56;;;;;;;9.90;7.07;;;;;;;;;;5045731;28;20025;-75
2023/07/09 01:25:23;;;;;;;11.20;6.95;;;;;;;;;;5047110;28;20025;-74
2023/07/09 01:27:48;;;;;;;10.02;6.47;;;;;;;;;;5045293;28;20029;-75
2023/07/09 01:30:30;;;;;;;11.52;6.78;;;;;;;;;;5050224;28;20116;-74
2023/07/09 01:32:58;;;;;;;10.20;7.05;;;;;;;;;;5035401;28;20163;-74
2023/07/09 01:35:25;;;;;;;10.10;7.18;;;;;;;;;;5034370;28;20033;-74
2023/07/09 01:37:51;;;;;;;10.13;7.25;;;;;;;;;;5031548;28;20020;-74
2023/07/09 01:40:19;;;;;;;11.93;7.28;;;;;;;;;;5046789;28;20024;-74
2023/07/09 01:42:45;;;;;;;11.60;7.10;;;;;;;;;;5031385;28;20536;-74
2023/07/09 01:45:12;;;;;;;13.35;7.68;;;;;;;;;;5052292;28;20036;-74
2023/07/09 01:47:38;;;;;;;11.68;7.70;;;;;;;;;;5043728;28;20996;-75
2023/07/09 01:50:06;;;;;;;9.13;6.20;;;;;;;;;;5049101;28;20059;-74
2023/07/09 01:52:33;;;;;;;9.02;7.07;;;;;;;;;;5043759;28;20040;-76
2023/07/09 01:54:58;;;;;;;10.48;7.28;;;;;;;;;;5045663;28;20025;-74
2023/07/09 01:57:32;;;;;;;12.57;7.18;;;;;;;;;;5029789;28;20032;-74
2023/07/09 01:59:59;;;;;;;10.90;7.45;;;;;;;;;;5045203;28;20029;-76
2023/07/09 02:02:25;;;;;;;11.77;7.18;;;;;;;;;;5028078;28;20702;-74
2023/07/09 02:04:53;;;;;;;12.00;7.10;;;;;;;;;;5046005;28;20033;-74
2023/07/09 02:07:20;;;;;;;9.68;7.60;;;;;;;;;;5030199;28;20090;-74
2023/07/09 02:09:45;;;;;;;9.70;7.25;;;;;;;;;;5044728;28;20021;-75
2023/07/09 02:12:12;;;;;;;11.35;7.38;;;;;;;;;;5042045;28;20041;-74
2023/07/09 02:14:39;;;;;;;10.65;7.00;;;;;;;;;;5048926;28;20907;-74
2023/07/09 02:17:04;;;;;;;11.07;6.93;;;;;;;;;;5047819;28;20116;-74
2023/07/09 02:19:30;;;;;;;11.10;7.13;;;;;;;;;;5049394;28;20447;-74
2023/07/09 02:21:56;;;;;;;10.98;7.68;;;;;;;;;;5040710;28;20041;-74
2023/07/09 02:24:24;;;;;;;11.38;7.47;;;;;;;;;;5047943;28;20404;-74
2023/07/09 02:26:51;;;;;;;9.93;7.53;;;;;;;;;;5027575;28;20146;-74
2023/07/09 02:29:17;;;;;;;9.20;6.57;;;;;;;;;;5049577;28;20029;-74
2023/07/09 02:31:43;;;;;;;9.45;6.80;;;;;;;;;;5047628;28;20275;-74
2023/07/09 02:34:09;;;;;;;10.93;7.35;;;;;;;;;;5050860;28;20025;-74
2023/07/09 02:36:34;;;;;;;9.32;6.90;;;;;;;;;;5023545;28;20025;-74
2023/07/09 02:38:59;;;;;;;8.80;6.60;;;;;;;;;;5043750;28;20126;-74
2023/07/09 02:41:25;;;;;;;10.63;6.75;;;;;;;;;;5034819;28;20527;-74
2023/07/09 02:43:50;;;;;;;10.45;6.93;;;;;;;;;;5028181;28;20090;-74
2023/07/09 02:46:15;;;;;;;10.85;6.57;;;;;;;;;;5029177;28;20028;-74
2023/07/09 02:48:41;;;;;;;10.38;7.20;;;;;;;;;;5029172;28;20488;-74
2023/07/09 02:51:06;;;;;;;12.40;6.68;;;;;;;;;;5047656;28;20032;-76
2023/07/09 02:53:31;;;;;;;10.68;6.88;;;;;;;;;;5043181;28;20029;-75
2023/07/09 02:55:57;;;;;;;10.30;6.75;;;;;;;;;;5029525;28;20061;-74
2023/07/09 02:58:22;;;;;;;12.35;6.88;;;;;;;;;;5026828;28;20472;-74
2023/07/09 03:00:53;;;;;;;11.65;6.53;;;;;;;;;;5028407;28;20028;-74
2023/07/09 03:03:20;;;;;;;10.88;6.65;;;;;;;;;;5023416;28;20029;-74
2023/07/09 03:05:49;;;;;;;12.32;7.10;;;;;;;;;;5040651;28;20489;-73
2023/07/09 03:08:15;;;;;;;10.35;7.15;;;;;;;;;;5024323;28;20031;-74
2023/07/09 03:10:40;;;;;;;11.73;7.18;;;;;;;;;;5045041;28;21374;-74
2023/07/09 03:13:06;;;;;;;9.32;6.50;;;;;;;;;;5037340;28;20052;-76
2023/07/09 03:15:32;;;;;;;9.85;7.28;;;;;;;;;;5044649;28;20035;-76
2023/07/09 03:17:57;;;;;;;10.57;7.63;;;;;;;;;;5041061;28;20164;-74
2023/07/09 03:20:23;;;;;;;12.07;8.00;;;;;;;;;;5027960;28;20103;-74
2023/07/09 03:22:49;;;;;;;10.85;7.00;;;;;;;;;;5042313;28;20047;-76
2023/07/09 03:25:14;;;;;;;10.45;7.55;;;;;;;;;;5035343;28;20034;-74
2023/07/09 03:27:40;;;;;;;12.35;8.07;;;;;;;;;;5045782;28;20036;-75
2023/07/09 03:30:06;;;;;;;13.48;8.40;;;;;;;;;;5029302;28;20040;-74
2023/07/09 03:32:31;;;;;;;10.57;7.75;;;;;;;;;;5036961;28;21557;-73
2023/07/09 03:34:56;;;;;;;12.57;7.78;;;;;;;;;;5045365;28;20489;-74
2023/07/09 03:37:22;;;;;;;11.75;8.20;;;;;;;;;;5036039;28;20029;-74
2023/07/09 03:39:47;;;;;;;13.05;8.73;;;;;;;;;;5045163;28;20098;-74
2023/07/09 03:42:13;;;;;;;11.43;8.65;;;;;;;;;;5042892;28;20040;-74
2023/07/09 03:44:38;;;;;;;11.23;8.35;;;;;;;;;;5026112;28;20033;-76
2023/07/09 03:47:04;;;;;;;12.70;9.18;;;;;;;;;;5045014;28;20078;-74
2023/07/09 03:49:29;;;;;;;11.68;8.57;;;;;;;;;;5039003;28;20029;-74
2023/07/09 03:51:55;;;;;;;13.02;8.27;;;;;;;;;;5041945;28;20546;-74
2023/07/09 03:54:20;;;;;;;14.38;9.25;;;;;;;;;;5023311;28;20037;-77
2023/07/09 03:56:46;;;;;;;12.68;8.20;;;;;;;;;;5023129;28;20095;-76
2023/07/09 03:59:11;;;;;;;12.40;8.55;;;;;;;;;;5032779;28;20060;-74
2023/07/09 04:01:37;;;;;;;13.05;8.68;;;;;;;;;;5043018;28;20028;-74
2023/07/09 04:04:02;;;;;;;10.70;7.85;;;;;;;;;;5036716;28;20058;-74
2023/07/09 04:06:28;;;;;;;13.40;8.02;;;;;;;;;;5023377;28;20119;-74
2023/07/09 04:08:53;;;;;;;13.07;8.25;;;;;;;;;;5028860;28;20025;-74
2023/07/09 04:11:18;;;;;;;10.63;7.93;;;;;;;;;;5025716;28;20117;-75
2023/07/09 04:13:44;;;;;;;12.80;8.60;;;;;;;;;;5048183;28;20041;-74
2023/07/09 04:16:10;;;;;;;10.80;8.27;;;;;;;;;;5032181;28;20035;-74
2023/07/09 04:18:36;;;;;;;12.10;7.90;;;;;;;;;;5031878;28;20021;-74
2023/07/09 04:21:01;;;;;;;11.27;7.70;;;;;;;;;;5056431;28;20032;-74
2023/07/09 04:23:27;;;;;;;11.10;7.90;;;;;;;;;;5034183;28;20035;-74
2023/07/09 04:25:53;;;;;;;12.23;8.93;;;;;;;;;;5044145;28;20533;-74
2023/07/09 04:28:18;;;;;;;10.23;7.88;;;;;;;;;;5030510;28;20439;-74
2023/07/09 04:30:51;;;;;;;11.55;8.20;;;;;;;;;;5032611;28;20062;-74
2023/07/09 04:33:20;;;;;;;12.73;8.75;;;;;;;;;;5043517;28;20113;-74
2023/07/09 04:35:46;;;;;;;12.85;8.98;;;;;;;;;;5035489;28;20029;-74
2023/07/09 04:38:13;;;;;;;13.35;8.50;;;;;;;;;;5040035;28;20120;-75
2023/07/09 04:40:38;;;;;;;12.32;8.73;;;;;;;;;;5040028;28;20059;-74
2023/07/09 04:43:04;;;;;;;12.10;8.57;;;;;;;;;;5050557;28;20588;-74
2023/07/09 04:45:29;;;;;;;11.05;8.30;;;;;;;;;;5045851;28;20147;-75
2023/07/09 04:47:54;;;;;;;13.98;9.00;;;;;;;;;;5042313;28;20148;-75
2023/07/09 04:50:20;;;;;;;12.02;8.57;;;;;;;;;;5045575;28;20036;-75
2023/07/09 04:52:45;;;;;;;13.85;8.82;;;;;;;;;;5028113;28;20112;-74
2023/07/09 04:55:10;;;;;;;12.15;8.70;;;;;;;;;;5030137;28;20032;-75
2023/07/09 04:57:36;;;;;;;13.48;8.38;;;;;;;;;;5048208;28;20028;-74
2023/07/09 05:00:04;;;;;;;12.98;9.00;;;;;;;;;;5028925;28;20089;-75
2023/07/09 05:02:30;;;;;;;12.20;9.23;;;;;;;;;;5051229;28;20028;-74
2023/07/09 05:04:56;;;;;;;13.85;9.10;;;;;;;;;;5027388;28;20037;-75
2023/07/09 05:07:21;;;;;;;13.65;10.10;;;;;;;;;;5041953;28;20021;-76
2023/07/09 05:09:47;;;;;;;14.85;11.05;;;;;;;;;;5046546;28;20025;-74
2023/07/09 05:12:13;;;;;;;14.65;10.93;;;;;;;;;;5032203;28;20048;-74
2023/07/09 05:14:39;;;;;;;17.45;13.05;;;;;;;;;;5051272;28;20025;-74
2023/07/09 05:17:05;;;;;;;14.43;10.35;;;;;;;;;;5028704;28;20051;-74
2023/07/09 05:19:31;;;;;;;13.95;11.18;;;;;;;;;;5046558;28;20029;-74
2023/07/09 05:21:56;;;;;;;15.45;11.52;;;;;;;;;;5031766;28;20052;-77
2023/07/09 05:24:21;;;;;;;16.90;11.32;;;;;;;;;;5026404;28;20029;-74
2023/07/09 05:26:47;;;;;;;14.73;11.75;;;;;;;;;;5024146;28;20029;-74
2023/07/09 05:29:13;;;;;;;16.50;12.13;;;;;;;;;;5051192;28;20123;-74
2023/07/09 05:31:38;;;;;;;16.02;11.43;;;;;;;;;;5047238;28;20021;-74
2023/07/09 05:34:03;;;;;;;14.00;10.15;;;;;;;;;;5041355;28;20024;-74
2023/07/09 05:36:29;;;;;;;15.80;12.07;;;;;;;;;;5030836;28;20040;-74
2023/07/09 05:38:56;;;;;;;13.25;10.27;;;;;;;;;;5052741;28;20108;-74
2023/07/09 05:41:21;;;;;;;16.30;11.05;;;;;;;;;;5028306;28;20029;-76
2023/07/09 05:43:47;;;;;;;14.82;11.63;;;;;;;;;;5049071;28;20024;-74
2023/07/09 05:46:14;;;;;;;12.52;8.88;;;;;;;;;;5050500;28;20040;-74
2023/07/09 05:48:39;;;;;;;13.00;9.20;;;;;;;;;;5048092;28;20624;-75
2023/07/09 05:51:05;;;;;;;15.68;11.05;;;;;;;;;;5041097;28;20050;-74
2023/07/09 05:53:31;;;;;;;19.40;11.95;;;;;;;;;;5028925;28;20029;-74
2023/07/09 05:55:57;;;;;;;16.95;11.27;;;;;;;;;;5025574;28;20059;-75
2023/07/09 05:58:23;;;;;;;14.73;11.27;;;;;;;;;;5042917;28;20052;-75
2023/07/09 06:00:55;;;;;;;16.50;11.68;;;;;;;;;;5045957;28;20029;-76
2023/07/09 06:03:22;;;;;;;12.93;10.48;;;;;;;;;;5027650;28;20031;-74
2023/07/09 06:05:51;;;;;;;18.02;12.25;;;;;;;;;;5031300;28;20474;-74
2023/07/09 06:08:18;;;;;;;14.00;10.07;;;;;;;;;;5023695;28;20363;-75
2023/07/09 06:10:53;;;;;;;16.38;11.18;;;;;;;;;;5046678;28;20090;-75
2023/07/09 06:13:20;;;;;;;15.43;10.50;;;;;;;;;;5029526;28;20021;-75
2023/07/09 06:15:46;;;;;;;15.23;10.55;;;;;;;;;;5055534;28;20044;-74
2023/07/09 06:18:11;;;;;;;16.20;10.55;;;;;;;;;;5040067;28;20036;-75
2023/07/09 06:20:38;;;;;;;16.15;10.93;;;;;;;;;;5030826;28;20029;-76
2023/07/09 06:23:03;;;;;;;13.90;10.27;;;;;;;;;;5026513;28;20033;-75
2023/07/09 06:25:29;;;;;;;16.50;10.23;;;;;;;;;;5047715;28;20024;-75
2023/07/09 06:27:54;;;;;;;16.52;10.07;;;;;;;;;;5044061;28;21747;-74
2023/07/09 06:30:19;;;;;;;14.15;9.82;;;;;;;;;;5033436;28;20458;-74
2023/07/09 06:32:45;;;;;;;15.35;9.20;;;;;;;;;;5033305;28;20021;-73
2023/07/09 06:35:11;;;;;;;11.98;8.82;;;;;;;;;;5018537;28;20489;-73
2023/07/09 06:37:36;;;;;;;13.38;8.68;;;;;;;;;;5050936;28;21341;-73
2023/07/09 06:40:02;;;;;;;13.45;8.52;;;;;;;;;;5036103;28;20358;-73
2023/07/09 06:42:28;;;;;;;13.48;8.85;;;;;;;;;;5049097;28;20462;-73
2023/07/09 06:44:53;;;;;;;13.20;8.18;;;;;;;;;;5050528;28;20028;-74
2023/07/09 06:47:19;;;;;;;10.68;8.07;;;;;;;;;;5056531;28;20021;-73
2023/07/09 06:49:44;;;;;;;14.38;8.35;;;;;;;;;;5028675;28;20029;-76
2023/07/09 06:52:09;;;;;;;11.43;8.38;;;;;;;;;;5053567;28;20206;-75
2023/07/09 06:54:35;;;;;;;12.60;7.95;;;;;;;;;;5050981;28;20028;-74
2023/07/09 06:57:00;;;;;;;10.40;7.90;;;;;;;;;;5049875;28;20037;-73
2023/07/09 06:59:25;;;;;;;11.20;8.35;;;;;;;;;;5035445;28;20036;-73
2023/07/09 07:01:51;;;;;;;15.70;8.40;;;;;;;;;;5034333;28;20029;-74
2023/07/09 07:04:16;;;;;;;10.07;7.70;;;;;;;;;;5052301;28;20036;-74
2023/07/09 07:06:42;;;;;;;10.73;7.78;;;;;;;;;;5030254;28;20036;-74
2023/07/09 07:09:07;;;;;;;11.82;7.65;;;;;;;;;;5048588;28;20080;-74
2023/07/09 07:11:32;;;;;;;14.63;7.50;;;;;;;;;;5048970;28;20029;-74
2023/07/09 07:13:58;;;;;;;11.85;7.55;;;;;;;;;;5034870;28;20035;-74
2023/07/09 07:16:23;;;;;;;12.52;7.50;;;;;;;;;;5036281;28;20029;-73
2023/07/09 07:18:50;;;;;;;9.93;6.55;;;;;;;;;;5029724;28;20037;-74
2023/07/09 07:21:15;;;;;;;9.70;6.43;;;;;;;;;;5024549;28;20028;-74
2023/07/09 07:23:40;;;;;;;9.68;7.25;;;;;;;;;;5034251;28;20021;-74
2023/07/09 07:26:06;;;;;;;12.10;6.95;;;;;;;;;;5044220;28;20033;-73
2023/07/09 07:28:34;;;;;;;9.43;6.70;;;;;;;;;;5031449;28;20505;-74
2023/07/09 07:31:05;;;;;;;10.60;6.30;;;;;;;;;;5046422;28;21751;-74
2023/07/09 07:33:31;;;;;;;11.88;6.43;;;;;;;;;;5050054;28;20040;-74
2023/07/09 07:35:56;;;;;;;8.75;6.15;;;;;;;;;;5045240;28;20029;-75
2023/07/09 07:38:22;;;;;;;8.73;6.07;;;;;;;;;;5043678;28;20115;-75
2023/07/09 07:40:47;;;;;;;11.25;7.10;;;;;;;;;;5049023;28;20032;-76
2023/07/09 07:43:13;;;;;;;9.15;6.43;;;;;;;;;;5017560;28;20032;-75
2023/07/09 07:45:42;;;;;;;8.65;5.72;;;;;;;;;;5028408;28;20032;-75
2023/07/09 07:48:08;;;;;;;8.30;5.97;;;;;;;;;;5046025;28;20021;-76
2023/07/09 07:50:33;;;;;;;10.07;5.97;;;;;;;;;;5043622;28;20033;-76
2023/07/09 07:52:59;;;;;;;10.48;6.20;;;;;;;;;;5027148;28;20044;-76
2023/07/09 07:55:24;;;;;;;10.20;6.80;;;;;;;;;;5027573;28;20439;-76
2023/07/09 07:57:50;;;;;;;10.02;5.97;;;;;;;;;;5044753;28;20186;-76
2023/07/09 08:00:16;;;;;;;8.13;6.03;;;;;;;;;;5042032;28;20029;-75
2023/07/09 08:02:41;;;;;;;10.60;5.90;;;;;;;;;;5044610;28;20112;-75
2023/07/09 08:05:07;;;;;;;10.07;6.35;;;;;;;;;;5032003;28;20029;-74
2023/07/09 08:07:32;;;;;;;8.98;6.50;;;;;;;;;;5032178;28;20048;-74
2023/07/09 08:09:58;;;;;;;10.30;6.50;;;;;;;;;;5033212;28;20032;-76
2023/07/09 08:12:23;;;;;;;16.13;7.35;;;;;;;;;;5048726;28;20029;-74
2023/07/09 08:14:48;;;;;;;10.60;7.13;;;;;;;;;;5045582;28;21351;-75
2023/07/09 08:17:14;;;;;;;11.70;7.40;;;;;;;;;;5033128;28;20409;-74
2023/07/09 08:19:47;;;;;;;10.88;7.15;;;;;;;;;;5049253;28;20033;-75
2023/07/09 08:22:15;;;;;;;9.85;7.00;;;;;;;;;;5027555;28;20120;-75
2023/07/09 08:24:40;;;;;;;10.98;6.20;;;;;;;;;;5031406;28;20032;-76
2023/07/09 08:27:07;;;;;;;9.48;6.30;;;;;;;;;;5031555;28;20029;-75
2023/07/09 08:29:32;;;;;;;9.80;5.80;;;;;;;;;;5030001;28;20021;-74
2023/07/09 08:31:58;;;;;;;9.05;5.10;;;;;;;;;;5051692;28;20036;-74
2023/07/09 08:34:23;;;;;;;10.55;5.90;;;;;;;;;;5030423;28;20028;-76
2023/07/09 08:36:48;;;;;;;9.90;5.70;;;;;;;;;;5050462;28;20021;-76
2023/07/09 08:39:15;;;;;;;8.45;5.65;;;;;;;;;;5013665;28;20478;-75
2023/07/09 08:41:59;;;;;;;9.05;5.90;;;;;;;;;;5026589;28;20028;-75
2023/07/09 08:44:33;;;;;;;8.18;4.80;;;;;;;;;;5023563;28;20025;-76
2023/07/09 08:47:06;;;;;;;8.07;4.00;;;;;;;;;;5030661;28;20040;-75
2023/07/09 08:49:47;;;;;;;;;;;;;;;;;;5046193;28;20079;-76
2023/07/09 08:52:37;;;;;;;7.25;4.32;;;;;;;;;;5048938;28;19913;-75
2023/07/09 08:55:26;;;;;;;7.25;4.18;;;;;;;;;;5023274;28;20044;-76
2023/07/09 08:58:05;;;;;;;10.13;4.90;;;;;;;;;;5044198;28;20041;-76
2023/07/09 09:00:37;;;;;;;8.18;5.53;;;;;;;;;;5024906;28;20060;-76
2023/07/09 09:03:05;;;;;;;;;;;;;;;;;;4999582;28;20100;-77
2023/07/09 09:05:33;;;;;;;9.77;5.60;;;;;;;;;;5021750;28;19917;-76
2023/07/09 09:08:09;;;;;;;9.45;5.22;;;;;;;;;;5041711;28;20432;-78
2023/07/09 09:11:05;;;;;;;7.13;4.60;;;;;;;;;;5041101;28;20083;-76
2023/07/09 09:13:31;;;;;;;7.68;5.22;;;;;;;;;;5043621;28;20040;-76
2023/07/09 09:16:02;;;;;;;6.07;4.53;;;;;;;;;;5025238;28;20377;-76
2023/07/09 09:18:35;;;;;;;9.60;5.18;;;;;;;;;;5044790;28;20032;-76
2023/07/09 09:21:25;;;;;;;6.78;4.90;;;;;;;;;;5006409;28;20330;-75
2023/07/09 09:23:53;;;;;;;7.32;4.90;;;;;;;;;;5024812;28;20032;-79
2023/07/09 09:26:26;;;;;;;7.13;4.80;;;;;;;;;;5025442;28;20036;-75
2023/07/09 09:28:52;;;;;;;8.13;5.05;;;;;;;;;;5030174;28;20028;-76
2023/07/09 09:31:18;;;;;;;8.73;4.55;;;;;;;;;;5026318;28;20029;-76
2023/07/09 09:33:46;;;;;;;9.45;5.25;;;;;;;;;;5039099;28;20028;-78
2023/07/09 09:36:18;;;;;;;8.50;5.25;;;;;;;;;;5024173;28;20488;-77
2023/07/09 09:38:44;;;;;;;8.55;4.85;;;;;;;;;;5045008;28;20032;-75
2023/07/09 09:41:14;;;;;;;6.80;5.00;;;;;;;;;;5034286;28;20036;-78
2023/07/09 09:44:05;;;;;;;58.15;7.55;;;;;;;;;;5034249;28;20131;-82
2023/07/09 09:46:32;;;;;;;7.65;4.68;;;;;;;;;;5033061;28;20379;-78
2023/07/09 09:49:03;;;;;;;8.52;5.07;;;;;;;;;;5030750;28;20526;-77
2023/07/09 09:51:29;;;;;;;7.80;4.57;;;;;;;;;;5053212;28;20031;-79
2023/07/09 09:54:00;;;;;;;8.73;4.40;;;;;;;;;;5031664;28;20417;-78
2023/07/09 09:56:36;;;;;;;6.40;4.18;;;;;;;;;;5030261;28;20488;-77
2023/07/09 09:59:03;;;;;;;8.85;4.70;;;;;;;;;;5042654;28;20041;-80
2023/07/09 10:01:37;;;;;;;7.97;4.57;;;;;;;;;;5030548;28;20021;-79
2023/07/09 10:04:04;;;;;;;7.38;4.82;;;;;;;;;;5033885;28;20060;-78
2023/07/09 10:06:39;;;;;;;10.13;5.25;;;;;;;;;;5048559;28;20050;-78
2023/07/09 10:09:17;;;;;;;7.93;4.78;;;;;;;;;;5028336;28;20405;-79
2023/07/09 10:11:58;;;;;;;7.68;5.15;;;;;;;;;;5047476;28;20450;-79
2023/07/09 10:14:55;;;;;;;7.93;5.00;;;;;;;;;;5030290;28;20059;-79
2023/07/09 10:17:31;;;;;;;8.48;4.60;;;;;;;;;;5032121;28;20040;-78
2023/07/09 10:20:02;;;;;;;7.80;4.82;;;;;;;;;;5046909;28;20028;-78
2023/07/09 10:22:49;;;;;;;7.25;4.80;;;;;;;;;;5048883;28;20029;-78
2023/07/09 10:25:40;;;;;;;5.80;4.65;;;;;;;;;;5026761;28;20464;-78
2023/07/09 10:28:50;;;;;;;9.18;4.32;;;;;;;;;;5031515;28;20117;-79
2023/07/09 10:31:33;;;;;;;5.65;4.10;;;;;;;;;;4946180;28;20031;-78
2023/07/09 10:34:20;;;;;;;8.40;4.38;;;;;;;;;;4932085;28;20569;-78
2023/07/09 10:36:57;;;;;;;7.32;4.40;;;;;;;;;;5019769;28;20032;-78
2023/07/09 10:39:28;;;;;;;7.63;4.45;;;;;;;;;;5022126;28;20029;-80
2023/07/09 10:41:59;;;;;;;7.95;4.90;;;;;;;;;;5026694;28;21902;-78
2023/07/09 10:44:38;;;;;;;7.70;4.80;;;;;;;;;;5044932;28;20059;-78
2023/07/09 10:47:11;;;;;;;8.50;5.30;;;;;;;;;;5028769;28;20543;-79
2023/07/09 10:49:41;;;;;;;6.60;4.50;;;;;;;;;;5036155;28;20084;-78
2023/07/09 10:52:28;;;;;;;6.45;4.57;;;;;;;;;;5051875;28;20029;-77
2023/07/09 10:55:09;;;;;;;6.57;4.75;;;;;;;;;;5051402;28;20091;-78
2023/07/09 10:58:02;;;;;;;6.15;4.60;;;;;;;;;;5032473;28;20544;-78
2023/07/09 11:00:39;;;;;;;8.40;5.03;;;;;;;;;;5035339;28;20388;-78
2023/07/09 11:04:03;;;;;;;6.78;4.60;;;;;;;;;;5056433;28;20104;-78
2023/07/09 11:06:38;;;;;;;7.68;4.57;;;;;;;;;;5026093;28;20511;-78
2023/07/09 11:09:11;;;;;;;7.63;5.00;;;;;;;;;;5036639;28;20493;-78
2023/07/09 11:11:49;;;;;;;8.57;4.45;;;;;;;;;;5053718;28;20036;-78
2023/07/09 11:14:28;;;;;;;7.05;4.95;;;;;;;;;;5036228;28;20497;-78
2023/07/09 11:16:56;;;;;;;7.70;4.70;;;;;;;;;;5036836;28;20027;-78
2023/07/09 11:19:22;;;;;;;6.68;5.10;;;;;;;;;;5054135;28;20389;-78
2023/07/09 11:22:13;;;;;;;7.10;4.68;;;;;;;;;;5044167;28;20104;-78
2023/07/09 11:24:49;;;;;;;10.23;4.72;;;;;;;;;;5033034;28;20024;-78
2023/07/09 11:27:27;;;;;;;9.07;5.05;;;;;;;;;;5052334;28;20370;-78
2023/07/09 11:29:57;;;;;;;7.30;4.90;;;;;;;;;;5032066;28;20158;-78
2023/07/09 11:32:23;;;;;;;7.93;5.18;;;;;;;;;;5053603;28;20090;-79
2023/07/09 11:34:49;;;;;;;7.95;4.95;;;;;;;;;;5034319;28;20044;-78
2023/07/09 11:37:15;;;;;;;8.77;4.68;;;;;;;;;;5050805;28;21714;-78
2023/07/09 11:39:41;;;;;;;9.85;4.80;;;;;;;;;;5052525;28;20421;-78
2023/07/09 11:42:25;;;;;;;6.57;4.30;;;;;;;;;;5048953;28;20024;-78
2023/07/09 11:44:58;;;;;;;8.48;4.47;;;;;;;;;;5048760;28;20041;-78
2023/07/09 11:47:25;;;;;;;9.00;4.22;;;;;;;;;;5047827;28;20024;-79
2023/07/09 11:49:59;;;;;;;6.43;4.15;;;;;;;;;;5052657;28;20044;-78
2023/07/09 11:52:37;;;;;;;7.72;4.68;;;;;;;;;;5054540;28;20489;-79
2023/07/09 11:55:15;;;;;;;7.78;4.60;;;;;;;;;;5044338;28;20027;-78
2023/07/09 11:57:41;;;;;;;6.63;4.63;;;;;;;;;;5024552;28;20028;-78
2023/07/09 12:00:08;;;;;;;7.30;4.60;;;;;;;;;;5050479;28;20452;-78
2023/07/09 12:02:34;;;;;;;6.53;4.15;;;;;;;;;;5049881;28;20481;-78
2023/07/09 12:05:02;;;;;;;7.57;4.80;;;;;;;;;;5031584;28;20078;-78
2023/07/09 12:07:29;;;;;;;8.63;4.60;;;;;;;;;;5041310;28;20018;-78
2023/07/09 12:09:54;;;;;;;9.27;5.10;;;;;;;;;;5031436;28;20020;-78
2023/07/09 12:12:25;;;;;;;7.88;4.47;;;;;;;;;;5031945;28;20082;-78
2023/07/09 12:14:51;;;;;;;7.38;4.57;;;;;;;;;;5028981;28;20055;-78
2023/07/09 12:17:17;;;;;;;8.25;4.60;;;;;;;;;;5029888;28;20354;-78
2023/07/09 12:19:43;;;;;;;7.93;4.70;;;;;;;;;;5033754;28;20028;-79
2023/07/09 12:22:22;;;;;;;6.72;4.30;;;;;;;;;;5019364;28;20043;-78
2023/07/09 12:24:49;;;;;;;6.15;4.60;;;;;;;;;;5022842;28;20026;-79
2023/07/09 12:27:20;;;;;;;8.30;5.40;;;;;;;;;;5046094;28;20116;-78
2023/07/09 12:29:45;;;;;;;8.65;5.25;;;;;;;;;;5027241;28;20029;-78
2023/07/09 12:32:16;;;;;;;7.85;5.35;;;;;;;;;;5023049;28;20040;-78
2023/07/09 12:34:41;;;;;;;7.38;5.47;;;;;;;;;;5039708;28;20029;-81
2023/07/09 12:37:16;;;;;;;7.60;5.80;;;;;;;;;;5032675;28;20028;-81
2023/07/09 12:39:42;;;;;;;8.13;5.80;;;;;;;;;;5029399;28;20087;-85
2023/07/09 12:42:20;;;;;;;9.48;6.05;;;;;;;;;;5042132;28;22361;-82
2023/07/09 12:44:51;;;;;;;7.88;6.00;;;;;;;;;;5047044;28;20029;-80
2023/07/09 12:47:18;;;;;;;9.43;6.45;;;;;;;;;;5043613;28;20032;-82
2023/07/09 12:49:45;;;;;;;15.95;10.48;;;;;;;;;;5048488;28;20028;-81
2023/07/09 12:52:19;;;;;;;15.45;10.90;;;;;;;;;;5029895;28;20390;-82
2023/07/09 12:55:01;;;;;;;13.57;10.50;;;;;;;;;;5049994;28;20056;-82
2023/07/09 12:57:28;;;;;;;13.13;9.38;;;;;;;;;;5035790;28;20025;-82
2023/07/09 12:59:55;;;;;;;15.20;11.07;;;;;;;;;;5029931;28;20044;-83
2023/07/09 13:02:28;;;;;;;12.82;10.30;;;;;;;;;;5029462;28;20045;-80
2023/07/09 13:05:04;;;;;;;14.18;11.25;;;;;;;;;;5030765;28;20025;-82
2023/07/09 13:07:34;;;;;;;14.48;9.80;;;;;;;;;;5041519;28;20376;-83
2023/07/09 13:10:06;;;;;;;14.30;10.50;;;;;;;;;;5034178;28;20378;-83
2023/07/09 13:12:32;;;;;;;13.98;10.50;;;;;;;;;;5050924;28;20032;-81
2023/07/09 13:14:59;;;;;;;12.73;10.50;;;;;;;;;;5059857;28;20509;-83
2023/07/09 13:17:29;;;;;;;15.95;10.75;;;;;;;;;;5024414;28;20394;-82
2023/07/09 13:19:56;;;;;;;13.30;10.25;;;;;;;;;;5035738;28;20074;-81
2023/07/09 13:22:23;;;;;;;13.27;10.43;;;;;;;;;;5034145;28;20037;-82
2023/07/09 13:24:49;;;;;;;12.52;9.77;;;;;;;;;;5043143;28;20070;-81
2023/07/09 13:27:15;;;;;;;14.63;10.50;;;;;;;;;;5034122;28;20024;-80
2023/07/09 13:29:42;;;;;;;14.38;9.02;;;;;;;;;;5034762;28;20029;-80
2023/07/09 13:32:12;;;;;;;12.27;9.00;;;;;;;;;;5051137;28;21675;-81
2023/07/09 13:34:39;;;;;;;10.07;8.10;;;;;;;;;;5037749;28;20167;-82
2023/07/09 13:37:05;;;;;;;10.43;8.40;;;;;;;;;;5034304;28;20030;-80
2023/07/09 13:39:31;;;;;;;12.95;8.32;;;;;;;;;;5049909;28;20092;-81
2023/07/09 13:41:57;;;;;;;11.02;8.90;;;;;;;;;;5037740;28;20028;-80
2023/07/09 13:44:26;;;;;;;9.52;7.63;;;;;;;;;;5049658;28;20025;-81
2023/07/09 13:46:52;;;;;;;9.70;7.60;;;;;;;;;;5036002;28;20381;-82
2023/07/09 13:49:19;;;;;;;11.43;9.13;;;;;;;;;;5032339;28;20052;-82
2023/07/09 13:51:46;;;;;;;9.20;7.90;;;;;;;;;;5046187;28;20028;-82
2023/07/09 13:54:18;;;;;;;13.32;8.65;;;;;;;;;;5031385;28;20033;-80
2023/07/09 13:56:44;;;;;;;10.95;8.43;;;;;;;;;;5034075;28;20059;-82
2023/07/09 13:59:15;;;;;;;11.73;8.60;;;;;;;;;;5048918;28;20060;-82
2023/07/09 14:01:42;;;;;;;11.88;8.20;;;;;;;;;;5032900;28;20028;-81
2023/07/09 14:04:10;;;;;;;17.02;9.25;;;;;;;;;;5031757;28;20093;-80
2023/07/09 14:06:36;;;;;;;11.15;8.43;;;;;;;;;;5047539;28;20466;-80
2023/07/09 14:09:03;;;;;;;10.52;8.75;;;;;;;;;;5035460;28;20037;-81
2023/07/09 14:11:29;;;;;;;9.55;7.30;;;;;;;;;;5033728;28;20029;-81
2023/07/09 14:13:55;;;;;;;10.90;7.75;;;;;;;;;;5032985;28;20375;-82
2023/07/09 14:16:21;;;;;;;9.20;6.72;;;;;;;;;;5030800;28;20036;-82
2023/07/09 14:18:46;;;;;;;7.95;5.93;;;;;;;;;;5052666;28;20024;-80
2023/07/09 14:21:18;;;;;;;12.45;8.00;;;;;;;;;;5051922;28;20470;-80
2023/07/09 14:23:43;;;;;;;7.63;4.65;;;;;;;;;;5052244;28;20163;-79
2023/07/09 14:26:13;;;;;;;11.60;4.65;;;;;;;;;;5016651;28;20115;-81
2023/07/09 14:28:38;;;;;;;9.25;3.40;;;;;;;;;;5050905;28;20461;-82
2023/07/09 14:31:24;;;;;;;9.10;3.53;;;;;;;;;;5032066;28;20040;-82
2023/07/09 14:33:49;;;;;;;6.10;3.40;;;;;;;;;;5032481;28;20112;-81
2023/07/09 14:36:15;;;;;;;8.02;3.85;;;;;;;;;;5055010;28;20592;-79
2023/07/09 14:38:40;;;;;;;8.38;3.92;;;;;;;;;;5053164;28;20017;-79
2023/07/09 14:41:23;;;;;;;11.35;3.97;;;;;;;;;;5032655;28;20049;-79
2023/07/09 14:43:48;;;;;;;;;;;;;;;;;;5051277;28;20040;-79
2023/07/09 14:46:14;;;;;;;7.28;3.60;;;;;;;;;;5051448;28;19921;-79